sensor_id;sensor_type;location;lat;lon;timestamp;P1;durP1;ratioP1;P2;durP2;ratioP2
30147;SDS011;16960;49.404;8.248;2023-05-21T00:00:16;8.00;;;7.40;;
30147;SDS011;16960;49.404;8.248;2023-05-21T00:02:44;7.73;;;7.13;;
30147;SDS011;16960;49.404;8.248;2023-05-21T00:05:11;7.53;;;6.80;;
30147;SDS011;16960;49.404;8.248;2023-05-21T00:07:39;8.13;;;7.53;;
30147;SDS011;16960;49.404;8.248;2023-05-21T00:10:07;6.97;;;6.47;;
30147;SDS011;16960;49.404;8.248;2023-05-21T00:12:35;8.10;;;7.40;;
30147;SDS011;16960;49.404;8.248;2023-05-21T00:15:03;7.30;;;6.70;;
30147;SDS011;16960;49.404;8.248;2023-05-21T00:17:30;7.20;;;6.70;;
30147;SDS011;16960;49.404;8.248;2023-05-21T00:19:58;7.73;;;7.03;;
30147;SDS011;16960;49.404;8.248;2023-05-21T00:22:26;6.63;;;6.13;;
30147;SDS011;16960;49.404;8.248;2023-05-21T00:24:53;7.50;;;6.80;;
30147;SDS011;16960;49.404;8.248;2023-05-21T00:27:20;7.10;;;6.50;;
30147;SDS011;16960;49.404;8.248;2023-05-21T00:29:48;7.17;;;6.50;;
30147;SDS011;16960;49.404;8.248;2023-05-21T00:32:15;7.37;;;6.77;;
30147;SDS011;16960;49.404;8.248;2023-05-21T00:34:42;7.00;;;6.50;;
30147;SDS011;16960;49.404;8.248;2023-05-21T00:37:08;7.50;;;6.90;;
30147;SDS011;16960;49.404;8.248;2023-05-21T00:39:35;7.10;;;6.50;;
30147;SDS011;16960;49.404;8.248;2023-05-21T00:42:02;7.50;;;6.90;;
30147;SDS011;16960;49.404;8.248;2023-05-21T00:44:30;8.90;;;8.10;;
30147;SDS011;16960;49.404;8.248;2023-05-21T00:46:59;8.10;;;7.43;;
30147;SDS011;16960;49.404;8.248;2023-05-21T00:49:26;8.70;;;7.90;;
30147;SDS011;16960;49.404;8.248;2023-05-21T00:51:54;7.13;;;6.47;;
30147;SDS011;16960;49.404;8.248;2023-05-21T00:54:21;7.80;;;7.20;;
30147;SDS011;16960;49.404;8.248;2023-05-21T00:56:49;8.00;;;7.30;;
30147;SDS011;16960;49.404;8.248;2023-05-21T00:59:17;8.90;;;8.10;;
30147;SDS011;16960;49.404;8.248;2023-05-21T01:01:44;7.70;;;7.00;;
30147;SDS011;16960;49.404;8.248;2023-05-21T01:04:19;6.97;;;6.30;;
30147;SDS011;16960;49.404;8.248;2023-05-21T01:06:46;8.03;;;7.33;;
30147;SDS011;16960;49.404;8.248;2023-05-21T01:09:13;8.13;;;7.33;;
30147;SDS011;16960;49.404;8.248;2023-05-21T01:11:47;8.13;;;7.43;;
30147;SDS011;16960;49.404;8.248;2023-05-21T01:14:16;8.10;;;7.40;;
30147;SDS011;16960;49.404;8.248;2023-05-21T01:16:45;7.00;;;6.50;;
30147;SDS011;16960;49.404;8.248;2023-05-21T01:19:15;8.57;;;7.77;;
30147;SDS011;16960;49.404;8.248;2023-05-21T01:21:45;6.73;;;6.23;;
30147;SDS011;16960;49.404;8.248;2023-05-21T01:24:16;8.30;;;7.60;;
30147;SDS011;16960;49.404;8.248;2023-05-21T01:26:43;7.80;;;7.10;;
30147;SDS011;16960;49.404;8.248;2023-05-21T01:29:11;8.70;;;8.00;;
30147;SDS011;16960;49.404;8.248;2023-05-21T01:31:44;7.30;;;6.70;;
30147;SDS011;16960;49.404;8.248;2023-05-21T01:34:25;8.37;;;7.67;;
30147;SDS011;16960;49.404;8.248;2023-05-21T01:36:59;7.73;;;7.13;;
30147;SDS011;16960;49.404;8.248;2023-05-21T01:39:32;7.77;;;7.17;;
30147;SDS011;16960;49.404;8.248;2023-05-21T01:42:03;7.03;;;6.43;;
30147;SDS011;16960;49.404;8.248;2023-05-21T01:44:33;7.87;;;7.20;;
30147;SDS011;16960;49.404;8.248;2023-05-21T01:47:01;6.93;;;6.40;;
30147;SDS011;16960;49.404;8.248;2023-05-21T01:49:29;8.10;;;7.40;;
30147;SDS011;16960;49.404;8.248;2023-05-21T01:51:56;7.80;;;7.20;;
30147;SDS011;16960;49.404;8.248;2023-05-21T01:54:23;7.90;;;7.20;;
30147;SDS011;16960;49.404;8.248;2023-05-21T01:56:52;7.70;;;7.10;;
30147;SDS011;16960;49.404;8.248;2023-05-21T01:59:19;6.80;;;6.30;;
30147;SDS011;16960;49.404;8.248;2023-05-21T02:01:46;8.47;;;7.77;;
30147;SDS011;16960;49.404;8.248;2023-05-21T02:04:13;7.57;;;6.97;;
30147;SDS011;16960;49.404;8.248;2023-05-21T02:06:40;7.50;;;6.80;;
30147;SDS011;16960;49.404;8.248;2023-05-21T02:09:08;9.30;;;8.27;;
30147;SDS011;16960;49.404;8.248;2023-05-21T02:11:35;7.47;;;6.80;;
30147;SDS011;16960;49.404;8.248;2023-05-21T02:14:03;7.90;;;7.20;;
30147;SDS011;16960;49.404;8.248;2023-05-21T02:16:32;9.10;;;8.30;;
30147;SDS011;16960;49.404;8.248;2023-05-21T02:18:58;7.40;;;6.80;;
30147;SDS011;16960;49.404;8.248;2023-05-21T02:21:25;7.93;;;7.23;;
30147;SDS011;16960;49.404;8.248;2023-05-21T02:23:52;8.83;;;8.03;;
30147;SDS011;16960;49.404;8.248;2023-05-21T02:26:19;7.33;;;6.60;;
30147;SDS011;16960;49.404;8.248;2023-05-21T02:28:47;8.40;;;7.70;;
30147;SDS011;16960;49.404;8.248;2023-05-21T02:31:15;7.80;;;7.13;;
30147;SDS011;16960;49.404;8.248;2023-05-21T02:33:42;7.37;;;6.80;;
30147;SDS011;16960;49.404;8.248;2023-05-21T02:36:09;7.40;;;6.80;;
30147;SDS011;16960;49.404;8.248;2023-05-21T02:38:37;7.97;;;7.27;;
30147;SDS011;16960;49.404;8.248;2023-05-21T02:41:07;8.20;;;7.40;;
30147;SDS011;16960;49.404;8.248;2023-05-21T02:43:35;7.70;;;7.00;;
30147;SDS011;16960;49.404;8.248;2023-05-21T02:46:02;7.37;;;6.77;;
30147;SDS011;16960;49.404;8.248;2023-05-21T02:48:31;8.00;;;7.33;;
30147;SDS011;16960;49.404;8.248;2023-05-21T02:50:58;7.57;;;6.87;;
30147;SDS011;16960;49.404;8.248;2023-05-21T02:53:25;9.17;;;8.27;;
30147;SDS011;16960;49.404;8.248;2023-05-21T02:55:52;7.93;;;7.23;;
30147;SDS011;16960;49.404;8.248;2023-05-21T02:58:18;7.23;;;6.63;;
30147;SDS011;16960;49.404;8.248;2023-05-21T03:00:47;7.50;;;6.90;;
30147;SDS011;16960;49.404;8.248;2023-05-21T03:03:14;7.23;;;6.63;;
30147;SDS011;16960;49.404;8.248;2023-05-21T03:05:44;7.00;;;6.40;;
30147;SDS011;16960;49.404;8.248;2023-05-21T03:08:15;8.23;;;7.53;;
30147;SDS011;16960;49.404;8.248;2023-05-21T03:10:42;8.33;;;7.60;;
30147;SDS011;16960;49.404;8.248;2023-05-21T03:13:09;7.43;;;6.83;;
30147;SDS011;16960;49.404;8.248;2023-05-21T03:15:36;7.57;;;6.97;;
30147;SDS011;16960;49.404;8.248;2023-05-21T03:18:03;6.97;;;6.40;;
30147;SDS011;16960;49.404;8.248;2023-05-21T03:20:30;7.57;;;6.97;;
30147;SDS011;16960;49.404;8.248;2023-05-21T03:22:58;8.03;;;7.33;;
30147;SDS011;16960;49.404;8.248;2023-05-21T03:25:28;8.17;;;7.40;;
30147;SDS011;16960;49.404;8.248;2023-05-21T03:27:55;8.03;;;7.27;;
30147;SDS011;16960;49.404;8.248;2023-05-21T03:30:21;8.30;;;6.70;;
30147;SDS011;16960;49.404;8.248;2023-05-21T03:32:48;7.60;;;6.90;;
30147;SDS011;16960;49.404;8.248;2023-05-21T03:35:15;7.87;;;7.17;;
30147;SDS011;16960;49.404;8.248;2023-05-21T03:37:42;6.90;;;6.40;;
30147;SDS011;16960;49.404;8.248;2023-05-21T03:40:13;7.53;;;6.83;;
30147;SDS011;16960;49.404;8.248;2023-05-21T03:42:40;7.23;;;6.63;;
30147;SDS011;16960;49.404;8.248;2023-05-21T03:45:07;7.13;;;6.53;;
30147;SDS011;16960;49.404;8.248;2023-05-21T03:47:34;7.33;;;6.73;;
30147;SDS011;16960;49.404;8.248;2023-05-21T03:50:01;7.47;;;6.87;;
30147;SDS011;16960;49.404;8.248;2023-05-21T03:52:29;7.13;;;6.53;;
30147;SDS011;16960;49.404;8.248;2023-05-21T03:54:56;7.30;;;6.70;;
30147;SDS011;16960;49.404;8.248;2023-05-21T03:57:24;7.80;;;7.10;;
30147;SDS011;16960;49.404;8.248;2023-05-21T03:59:51;8.33;;;7.10;;
30147;SDS011;16960;49.404;8.248;2023-05-21T04:02:19;7.20;;;6.50;;
30147;SDS011;16960;49.404;8.248;2023-05-21T04:04:47;7.50;;;6.90;;
30147;SDS011;16960;49.404;8.248;2023-05-21T04:07:15;7.57;;;6.97;;
30147;SDS011;16960;49.404;8.248;2023-05-21T04:09:43;8.10;;;7.40;;
30147;SDS011;16960;49.404;8.248;2023-05-21T04:12:10;7.13;;;6.53;;
30147;SDS011;16960;49.404;8.248;2023-05-21T04:14:38;7.23;;;6.63;;
30147;SDS011;16960;49.404;8.248;2023-05-21T04:17:05;7.30;;;6.60;;
30147;SDS011;16960;49.404;8.248;2023-05-21T04:19:33;7.30;;;6.70;;
30147;SDS011;16960;49.404;8.248;2023-05-21T04:22:00;7.90;;;7.10;;
30147;SDS011;16960;49.404;8.248;2023-05-21T04:24:27;8.00;;;7.30;;
30147;SDS011;16960;49.404;8.248;2023-05-21T04:26:54;7.40;;;6.80;;
30147;SDS011;16960;49.404;8.248;2023-05-21T04:29:21;7.70;;;7.00;;
30147;SDS011;16960;49.404;8.248;2023-05-21T04:31:51;7.47;;;6.87;;
30147;SDS011;16960;49.404;8.248;2023-05-21T04:34:18;7.00;;;6.50;;
30147;SDS011;16960;49.404;8.248;2023-05-21T04:36:45;6.73;;;6.13;;
30147;SDS011;16960;49.404;8.248;2023-05-21T04:39:13;8.13;;;7.43;;
30147;SDS011;16960;49.404;8.248;2023-05-21T04:41:40;6.93;;;6.33;;
30147;SDS011;16960;49.404;8.248;2023-05-21T04:44:08;7.70;;;7.00;;
30147;SDS011;16960;49.404;8.248;2023-05-21T04:46:38;7.37;;;6.77;;
30147;SDS011;16960;49.404;8.248;2023-05-21T04:49:08;7.50;;;6.90;;
30147;SDS011;16960;49.404;8.248;2023-05-21T04:51:35;7.67;;;7.00;;
30147;SDS011;16960;49.404;8.248;2023-05-21T04:54:02;7.37;;;6.77;;
30147;SDS011;16960;49.404;8.248;2023-05-21T04:56:29;7.00;;;6.40;;
30147;SDS011;16960;49.404;8.248;2023-05-21T04:58:56;6.97;;;6.47;;
30147;SDS011;16960;49.404;8.248;2023-05-21T05:01:26;7.70;;;7.10;;
30147;SDS011;16960;49.404;8.248;2023-05-21T05:03:59;7.43;;;6.83;;
30147;SDS011;16960;49.404;8.248;2023-05-21T05:06:27;7.70;;;7.10;;
30147;SDS011;16960;49.404;8.248;2023-05-21T05:08:55;7.57;;;6.93;;
30147;SDS011;16960;49.404;8.248;2023-05-21T05:11:22;7.27;;;6.50;;
30147;SDS011;16960;49.404;8.248;2023-05-21T05:13:49;7.20;;;6.47;;
30147;SDS011;16960;49.404;8.248;2023-05-21T05:16:16;7.83;;;7.20;;
30147;SDS011;16960;49.404;8.248;2023-05-21T05:18:48;7.03;;;6.43;;
30147;SDS011;16960;49.404;8.248;2023-05-21T05:21:16;7.50;;;6.80;;
30147;SDS011;16960;49.404;8.248;2023-05-21T05:23:44;7.20;;;6.63;;
30147;SDS011;16960;49.404;8.248;2023-05-21T05:26:11;7.43;;;6.80;;
30147;SDS011;16960;49.404;8.248;2023-05-21T05:28:38;7.10;;;6.50;;
30147;SDS011;16960;49.404;8.248;2023-05-21T05:31:05;8.37;;;7.67;;
30147;SDS011;16960;49.404;8.248;2023-05-21T05:33:32;7.30;;;6.60;;
30147;SDS011;16960;49.404;8.248;2023-05-21T05:35:59;6.97;;;6.33;;
30147;SDS011;16960;49.404;8.248;2023-05-21T05:38:26;7.50;;;6.80;;
30147;SDS011;16960;49.404;8.248;2023-05-21T05:40:54;7.53;;;6.83;;
30147;SDS011;16960;49.404;8.248;2023-05-21T05:43:21;6.93;;;6.33;;
30147;SDS011;16960;49.404;8.248;2023-05-21T05:45:49;6.37;;;5.87;;
30147;SDS011;16960;49.404;8.248;2023-05-21T05:48:16;6.63;;;6.10;;
30147;SDS011;16960;49.404;8.248;2023-05-21T05:50:43;6.97;;;6.40;;
30147;SDS011;16960;49.404;8.248;2023-05-21T05:53:10;7.17;;;6.57;;
30147;SDS011;16960;49.404;8.248;2023-05-21T05:55:38;6.63;;;6.10;;
30147;SDS011;16960;49.404;8.248;2023-05-21T05:58:07;7.30;;;6.70;;
30147;SDS011;16960;49.404;8.248;2023-05-21T06:00:34;7.20;;;6.60;;
30147;SDS011;16960;49.404;8.248;2023-05-21T06:03:00;7.63;;;6.93;;
30147;SDS011;16960;49.404;8.248;2023-05-21T06:05:27;7.37;;;6.67;;
30147;SDS011;16960;49.404;8.248;2023-05-21T06:07:54;7.13;;;6.50;;
30147;SDS011;16960;49.404;8.248;2023-05-21T06:10:21;6.30;;;5.80;;
30147;SDS011;16960;49.404;8.248;2023-05-21T06:12:48;7.07;;;6.47;;
30147;SDS011;16960;49.404;8.248;2023-05-21T06:15:16;6.40;;;5.90;;
30147;SDS011;16960;49.404;8.248;2023-05-21T06:17:44;7.73;;;7.03;;
30147;SDS011;16960;49.404;8.248;2023-05-21T06:20:11;7.50;;;6.87;;
30147;SDS011;16960;49.404;8.248;2023-05-21T06:22:37;7.10;;;6.50;;
30147;SDS011;16960;49.404;8.248;2023-05-21T06:25:05;6.70;;;6.10;;
30147;SDS011;16960;49.404;8.248;2023-05-21T06:27:34;6.50;;;6.00;;
30147;SDS011;16960;49.404;8.248;2023-05-21T06:30:02;7.83;;;7.23;;
30147;SDS011;16960;49.404;8.248;2023-05-21T06:32:31;6.13;;;5.63;;
30147;SDS011;16960;49.404;8.248;2023-05-21T06:34:58;7.57;;;6.87;;
30147;SDS011;16960;49.404;8.248;2023-05-21T06:37:25;7.20;;;6.60;;
30147;SDS011;16960;49.404;8.248;2023-05-21T06:39:52;7.50;;;6.90;;
30147;SDS011;16960;49.404;8.248;2023-05-21T06:42:19;6.50;;;6.00;;
30147;SDS011;16960;49.404;8.248;2023-05-21T06:44:45;7.23;;;6.60;;
30147;SDS011;16960;49.404;8.248;2023-05-21T06:47:12;7.10;;;6.53;;
30147;SDS011;16960;49.404;8.248;2023-05-21T06:49:41;6.77;;;6.27;;
30147;SDS011;16960;49.404;8.248;2023-05-21T06:52:08;6.70;;;6.10;;
30147;SDS011;16960;49.404;8.248;2023-05-21T06:54:35;7.03;;;6.43;;
30147;SDS011;16960;49.404;8.248;2023-05-21T06:57:02;6.83;;;6.23;;
30147;SDS011;16960;49.404;8.248;2023-05-21T06:59:29;7.13;;;6.53;;
30147;SDS011;16960;49.404;8.248;2023-05-21T07:01:56;6.63;;;5.93;;
30147;SDS011;16960;49.404;8.248;2023-05-21T07:04:23;6.50;;;5.90;;
30147;SDS011;16960;49.404;8.248;2023-05-21T07:06:51;6.70;;;5.60;;
30147;SDS011;16960;49.404;8.248;2023-05-21T07:09:18;6.40;;;5.90;;
30147;SDS011;16960;49.404;8.248;2023-05-21T07:11:45;9.23;;;6.20;;
30147;SDS011;16960;49.404;8.248;2023-05-21T07:14:12;6.93;;;6.23;;
30147;SDS011;16960;49.404;8.248;2023-05-21T07:16:39;6.20;;;5.70;;
30147;SDS011;16960;49.404;8.248;2023-05-21T07:19:06;7.93;;;7.13;;
30147;SDS011;16960;49.404;8.248;2023-05-21T07:21:33;5.90;;;5.40;;
30147;SDS011;16960;49.404;8.248;2023-05-21T07:24:01;7.03;;;6.47;;
30147;SDS011;16960;49.404;8.248;2023-05-21T07:26:28;8.00;;;7.10;;
30147;SDS011;16960;49.404;8.248;2023-05-21T07:28:55;6.90;;;6.40;;
30147;SDS011;16960;49.404;8.248;2023-05-21T07:31:22;6.97;;;6.37;;
30147;SDS011;16960;49.404;8.248;2023-05-21T07:33:49;8.97;;;7.17;;
30147;SDS011;16960;49.404;8.248;2023-05-21T07:36:16;7.10;;;6.40;;
30147;SDS011;16960;49.404;8.248;2023-05-21T07:38:43;7.30;;;6.70;;
30147;SDS011;16960;49.404;8.248;2023-05-21T07:41:11;7.00;;;6.40;;
30147;SDS011;16960;49.404;8.248;2023-05-21T07:43:38;6.60;;;6.00;;
30147;SDS011;16960;49.404;8.248;2023-05-21T07:46:05;6.70;;;6.20;;
30147;SDS011;16960;49.404;8.248;2023-05-21T07:48:32;7.17;;;6.57;;
30147;SDS011;16960;49.404;8.248;2023-05-21T07:50:59;6.70;;;6.20;;
30147;SDS011;16960;49.404;8.248;2023-05-21T07:53:26;8.50;;;7.00;;
30147;SDS011;16960;49.404;8.248;2023-05-21T07:55:56;7.00;;;6.40;;
30147;SDS011;16960;49.404;8.248;2023-05-21T07:58:24;11.10;;;7.43;;
30147;SDS011;16960;49.404;8.248;2023-05-21T08:00:51;7.50;;;6.90;;
30147;SDS011;16960;49.404;8.248;2023-05-21T08:03:18;8.17;;;7.27;;
30147;SDS011;16960;49.404;8.248;2023-05-21T08:05:45;7.37;;;6.70;;
30147;SDS011;16960;49.404;8.248;2023-05-21T08:08:14;7.67;;;7.00;;
30147;SDS011;16960;49.404;8.248;2023-05-21T08:10:41;7.17;;;6.47;;
30147;SDS011;16960;49.404;8.248;2023-05-21T08:13:09;7.93;;;7.23;;
30147;SDS011;16960;49.404;8.248;2023-05-21T08:15:38;8.23;;;6.27;;
30147;SDS011;16960;49.404;8.248;2023-05-21T08:18:05;7.70;;;7.00;;
30147;SDS011;16960;49.404;8.248;2023-05-21T08:20:32;8.10;;;7.40;;
30147;SDS011;16960;49.404;8.248;2023-05-21T08:22:59;11.13;;;7.87;;
30147;SDS011;16960;49.404;8.248;2023-05-21T08:25:26;7.83;;;7.03;;
30147;SDS011;16960;49.404;8.248;2023-05-21T08:27:53;7.00;;;6.40;;
30147;SDS011;16960;49.404;8.248;2023-05-21T08:30:20;7.70;;;7.00;;
30147;SDS011;16960;49.404;8.248;2023-05-21T08:32:48;7.70;;;7.10;;
30147;SDS011;16960;49.404;8.248;2023-05-21T08:35:15;7.33;;;6.80;;
30147;SDS011;16960;49.404;8.248;2023-05-21T08:37:42;10.93;;;7.20;;
30147;SDS011;16960;49.404;8.248;2023-05-21T08:40:10;8.93;;;8.13;;
30147;SDS011;16960;49.404;8.248;2023-05-21T08:42:38;8.20;;;7.40;;
30147;SDS011;16960;49.404;8.248;2023-05-21T08:45:07;8.20;;;7.40;;
30147;SDS011;16960;49.404;8.248;2023-05-21T08:47:37;9.43;;;8.00;;
30147;SDS011;16960;49.404;8.248;2023-05-21T08:50:10;8.60;;;7.70;;
30147;SDS011;16960;49.404;8.248;2023-05-21T08:52:38;7.83;;;7.13;;
30147;SDS011;16960;49.404;8.248;2023-05-21T08:55:06;8.13;;;7.43;;
30147;SDS011;16960;49.404;8.248;2023-05-21T08:57:34;8.07;;;7.37;;
30147;SDS011;16960;49.404;8.248;2023-05-21T09:00:02;8.63;;;7.83;;
30147;SDS011;16960;49.404;8.248;2023-05-21T09:02:32;8.70;;;8.00;;
30147;SDS011;16960;49.404;8.248;2023-05-21T09:05:02;9.30;;;8.50;;
30147;SDS011;16960;49.404;8.248;2023-05-21T09:07:33;9.80;;;8.80;;
30147;SDS011;16960;49.404;8.248;2023-05-21T09:10:06;9.67;;;8.67;;
30147;SDS011;16960;49.404;8.248;2023-05-21T09:12:37;9.17;;;8.30;;
30147;SDS011;16960;49.404;8.248;2023-05-21T09:15:04;10.10;;;9.17;;
30147;SDS011;16960;49.404;8.248;2023-05-21T09:17:37;10.03;;;9.07;;
30147;SDS011;16960;49.404;8.248;2023-05-21T09:20:06;8.60;;;7.80;;
30147;SDS011;16960;49.404;8.248;2023-05-21T09:22:37;10.10;;;9.20;;
30147;SDS011;16960;49.404;8.248;2023-05-21T09:25:07;9.90;;;9.00;;
30147;SDS011;16960;49.404;8.248;2023-05-21T09:27:34;9.70;;;8.40;;
30147;SDS011;16960;49.404;8.248;2023-05-21T09:30:02;11.60;;;10.50;;
30147;SDS011;16960;49.404;8.248;2023-05-21T09:32:30;9.83;;;8.93;;
30147;SDS011;16960;49.404;8.248;2023-05-21T09:35:01;10.30;;;9.40;;
30147;SDS011;16960;49.404;8.248;2023-05-21T09:37:39;10.20;;;9.30;;
30147;SDS011;16960;49.404;8.248;2023-05-21T09:40:11;10.93;;;9.97;;
30147;SDS011;16960;49.404;8.248;2023-05-21T09:42:39;9.87;;;8.97;;
30147;SDS011;16960;49.404;8.248;2023-05-21T09:45:09;9.77;;;8.90;;
30147;SDS011;16960;49.404;8.248;2023-05-21T09:47:39;10.73;;;9.77;;
30147;SDS011;16960;49.404;8.248;2023-05-21T09:50:08;16.67;;;9.27;;
30147;SDS011;16960;49.404;8.248;2023-05-21T09:52:36;10.57;;;9.57;;
30147;SDS011;16960;49.404;8.248;2023-05-21T09:55:08;10.40;;;9.50;;
30147;SDS011;16960;49.404;8.248;2023-05-21T09:57:40;10.50;;;9.60;;
30147;SDS011;16960;49.404;8.248;2023-05-21T10:00:08;11.80;;;10.60;;
30147;SDS011;16960;49.404;8.248;2023-05-21T10:02:43;11.37;;;10.40;;
30147;SDS011;16960;49.404;8.248;2023-05-21T10:05:11;10.30;;;9.40;;
30147;SDS011;16960;49.404;8.248;2023-05-21T10:07:40;11.33;;;10.40;;
30147;SDS011;16960;49.404;8.248;2023-05-21T10:10:12;13.57;;;10.90;;
30147;SDS011;16960;49.404;8.248;2023-05-21T10:12:40;11.33;;;10.33;;
30147;SDS011;16960;49.404;8.248;2023-05-21T10:15:12;11.50;;;10.40;;
30147;SDS011;16960;49.404;8.248;2023-05-21T10:17:41;10.30;;;9.40;;
30147;SDS011;16960;49.404;8.248;2023-05-21T10:20:10;11.17;;;10.07;;
30147;SDS011;16960;49.404;8.248;2023-05-21T10:22:38;11.00;;;10.00;;
30147;SDS011;16960;49.404;8.248;2023-05-21T10:25:05;11.27;;;10.33;;
30147;SDS011;16960;49.404;8.248;2023-05-21T10:27:35;11.63;;;10.43;;
30147;SDS011;16960;49.404;8.248;2023-05-21T10:30:03;11.73;;;10.73;;
30147;SDS011;16960;49.404;8.248;2023-05-21T10:32:33;10.47;;;9.57;;
30147;SDS011;16960;49.404;8.248;2023-05-21T10:35:00;12.27;;;11.00;;
30147;SDS011;16960;49.404;8.248;2023-05-21T10:37:27;10.63;;;9.67;;
30147;SDS011;16960;49.404;8.248;2023-05-21T10:39:54;12.27;;;10.93;;
30147;SDS011;16960;49.404;8.248;2023-05-21T10:42:25;10.40;;;9.50;;
30147;SDS011;16960;49.404;8.248;2023-05-21T10:45:22;11.30;;;10.30;;
30147;SDS011;16960;49.404;8.248;2023-05-21T10:48:17;12.57;;;11.40;;
30147;SDS011;16960;49.404;8.248;2023-05-21T10:51:14;11.63;;;10.63;;
30147;SDS011;16960;49.404;8.248;2023-05-21T10:54:00;12.10;;;11.00;;
30147;SDS011;16960;49.404;8.248;2023-05-21T10:56:47;11.30;;;10.40;;
30147;SDS011;16960;49.404;8.248;2023-05-21T10:59:24;11.40;;;10.30;;
30147;SDS011;16960;49.404;8.248;2023-05-21T11:02:01;11.70;;;10.70;;
30147;SDS011;16960;49.404;8.248;2023-05-21T11:04:29;11.70;;;10.67;;
30147;SDS011;16960;49.404;8.248;2023-05-21T11:06:59;11.60;;;10.67;;
30147;SDS011;16960;49.404;8.248;2023-05-21T11:09:27;12.10;;;10.93;;
30147;SDS011;16960;49.404;8.248;2023-05-21T11:11:55;13.60;;;12.30;;
30147;SDS011;16960;49.404;8.248;2023-05-21T11:14:28;12.00;;;11.00;;
30147;SDS011;16960;49.404;8.248;2023-05-21T11:16:59;12.20;;;10.97;;
30147;SDS011;16960;49.404;8.248;2023-05-21T11:19:33;11.77;;;10.70;;
30147;SDS011;16960;49.404;8.248;2023-05-21T11:22:04;10.60;;;9.70;;
30147;SDS011;16960;49.404;8.248;2023-05-21T11:24:39;12.70;;;11.47;;
30147;SDS011;16960;49.404;8.248;2023-05-21T11:27:06;11.47;;;10.47;;
30147;SDS011;16960;49.404;8.248;2023-05-21T11:29:41;11.17;;;10.20;;
30147;SDS011;16960;49.404;8.248;2023-05-21T11:32:10;12.47;;;11.37;;
30147;SDS011;16960;49.404;8.248;2023-05-21T11:34:44;13.00;;;11.87;;
30147;SDS011;16960;49.404;8.248;2023-05-21T11:37:22;11.53;;;10.33;;
30147;SDS011;16960;49.404;8.248;2023-05-21T11:40:19;12.10;;;10.83;;
30147;SDS011;16960;49.404;8.248;2023-05-21T11:42:51;11.90;;;10.80;;
30147;SDS011;16960;49.404;8.248;2023-05-21T11:45:20;12.63;;;11.53;;
30147;SDS011;16960;49.404;8.248;2023-05-21T11:47:48;11.57;;;10.57;;
30147;SDS011;16960;49.404;8.248;2023-05-21T11:50:17;11.10;;;10.20;;
30147;SDS011;16960;49.404;8.248;2023-05-21T11:52:44;12.50;;;11.33;;
30147;SDS011;16960;49.404;8.248;2023-05-21T11:55:11;11.70;;;10.53;;
30147;SDS011;16960;49.404;8.248;2023-05-21T11:57:40;12.27;;;11.13;;
30147;SDS011;16960;49.404;8.248;2023-05-21T12:00:13;11.40;;;10.50;;
30147;SDS011;16960;49.404;8.248;2023-05-21T12:02:46;12.73;;;11.63;;
30147;SDS011;16960;49.404;8.248;2023-05-21T12:05:16;11.67;;;10.63;;
30147;SDS011;16960;49.404;8.248;2023-05-21T12:07:45;12.40;;;11.30;;
30147;SDS011;16960;49.404;8.248;2023-05-21T12:10:14;12.10;;;11.00;;
30147;SDS011;16960;49.404;8.248;2023-05-21T12:12:41;12.20;;;11.10;;
30147;SDS011;16960;49.404;8.248;2023-05-21T12:15:09;11.73;;;10.63;;
30147;SDS011;16960;49.404;8.248;2023-05-21T12:17:37;12.03;;;10.93;;
30147;SDS011;16960;49.404;8.248;2023-05-21T12:20:07;12.47;;;11.37;;
30147;SDS011;16960;49.404;8.248;2023-05-21T12:22:34;12.80;;;11.50;;
30147;SDS011;16960;49.404;8.248;2023-05-21T12:25:06;11.17;;;10.23;;
30147;SDS011;16960;49.404;8.248;2023-05-21T12:27:34;11.87;;;10.83;;
30147;SDS011;16960;49.404;8.248;2023-05-21T12:30:02;12.40;;;11.20;;
30147;SDS011;16960;49.404;8.248;2023-05-21T12:32:29;12.20;;;11.00;;
30147;SDS011;16960;49.404;8.248;2023-05-21T12:34:56;12.20;;;11.10;;
30147;SDS011;16960;49.404;8.248;2023-05-21T12:37:25;10.83;;;9.90;;
30147;SDS011;16960;49.404;8.248;2023-05-21T12:39:57;11.57;;;10.57;;
30147;SDS011;16960;49.404;8.248;2023-05-21T12:42:24;11.70;;;10.60;;
30147;SDS011;16960;49.404;8.248;2023-05-21T12:44:53;13.10;;;10.63;;
30147;SDS011;16960;49.404;8.248;2023-05-21T12:47:22;11.53;;;10.43;;
30147;SDS011;16960;49.404;8.248;2023-05-21T12:49:52;11.03;;;10.03;;
30147;SDS011;16960;49.404;8.248;2023-05-21T12:52:21;11.93;;;10.83;;
30147;SDS011;16960;49.404;8.248;2023-05-21T12:54:50;11.20;;;10.27;;
30147;SDS011;16960;49.404;8.248;2023-05-21T12:57:19;11.93;;;10.80;;
30147;SDS011;16960;49.404;8.248;2023-05-21T12:59:48;11.57;;;10.67;;
30147;SDS011;16960;49.404;8.248;2023-05-21T13:02:18;11.83;;;10.83;;
30147;SDS011;16960;49.404;8.248;2023-05-21T13:04:46;11.97;;;10.97;;
30147;SDS011;16960;49.404;8.248;2023-05-21T13:07:14;12.13;;;11.03;;
30147;SDS011;16960;49.404;8.248;2023-05-21T13:09:41;12.00;;;10.97;;
30147;SDS011;16960;49.404;8.248;2023-05-21T13:12:09;10.87;;;9.83;;
30147;SDS011;16960;49.404;8.248;2023-05-21T13:14:37;11.70;;;10.70;;
30147;SDS011;16960;49.404;8.248;2023-05-21T13:17:04;11.33;;;10.43;;
30147;SDS011;16960;49.404;8.248;2023-05-21T13:19:31;10.67;;;9.57;;
30147;SDS011;16960;49.404;8.248;2023-05-21T13:21:58;11.23;;;10.30;;
30147;SDS011;16960;49.404;8.248;2023-05-21T13:24:25;12.53;;;10.60;;
30147;SDS011;16960;49.404;8.248;2023-05-21T13:26:52;11.40;;;10.40;;
30147;SDS011;16960;49.404;8.248;2023-05-21T13:29:20;11.03;;;10.03;;
30147;SDS011;16960;49.404;8.248;2023-05-21T13:31:47;11.40;;;10.50;;
30147;SDS011;16960;49.404;8.248;2023-05-21T13:34:14;11.47;;;10.47;;
30147;SDS011;16960;49.404;8.248;2023-05-21T13:36:41;11.13;;;10.20;;
30147;SDS011;16960;49.404;8.248;2023-05-21T13:39:08;11.00;;;10.10;;
30147;SDS011;16960;49.404;8.248;2023-05-21T13:41:35;12.17;;;11.00;;
30147;SDS011;16960;49.404;8.248;2023-05-21T13:44:02;11.33;;;10.27;;
30147;SDS011;16960;49.404;8.248;2023-05-21T13:46:31;11.60;;;10.50;;
30147;SDS011;16960;49.404;8.248;2023-05-21T13:49:03;11.57;;;10.57;;
30147;SDS011;16960;49.404;8.248;2023-05-21T13:51:31;11.53;;;10.60;;
30147;SDS011;16960;49.404;8.248;2023-05-21T13:53:58;10.77;;;9.87;;
30147;SDS011;16960;49.404;8.248;2023-05-21T13:56:25;10.33;;;9.53;;
30147;SDS011;16960;49.404;8.248;2023-05-21T13:58:52;11.27;;;10.33;;
30147;SDS011;16960;49.404;8.248;2023-05-21T14:01:19;10.77;;;9.87;;
30147;SDS011;16960;49.404;8.248;2023-05-21T14:03:47;11.43;;;10.37;;
30147;SDS011;16960;49.404;8.248;2023-05-21T14:06:14;10.90;;;10.00;;
30147;SDS011;16960;49.404;8.248;2023-05-21T14:08:41;10.43;;;9.53;;
30147;SDS011;16960;49.404;8.248;2023-05-21T14:11:08;11.97;;;10.90;;
30147;SDS011;16960;49.404;8.248;2023-05-21T14:13:35;10.70;;;9.70;;
30147;SDS011;16960;49.404;8.248;2023-05-21T14:16:01;11.47;;;10.47;;
30147;SDS011;16960;49.404;8.248;2023-05-21T14:18:28;11.53;;;10.53;;
30147;SDS011;16960;49.404;8.248;2023-05-21T14:20:57;10.80;;;9.90;;
30147;SDS011;16960;49.404;8.248;2023-05-21T14:23:24;11.37;;;10.37;;
30147;SDS011;16960;49.404;8.248;2023-05-21T14:25:51;11.50;;;10.50;;
30147;SDS011;16960;49.404;8.248;2023-05-21T14:28:18;11.50;;;10.47;;
30147;SDS011;16960;49.404;8.248;2023-05-21T14:30:45;10.43;;;9.60;;
30147;SDS011;16960;49.404;8.248;2023-05-21T14:33:11;12.27;;;11.27;;
30147;SDS011;16960;49.404;8.248;2023-05-21T14:35:38;11.83;;;10.83;;
30147;SDS011;16960;49.404;8.248;2023-05-21T14:38:09;11.73;;;10.53;;
30147;SDS011;16960;49.404;8.248;2023-05-21T14:40:36;11.07;;;10.07;;
30147;SDS011;16960;49.404;8.248;2023-05-21T14:43:03;11.30;;;10.30;;
30147;SDS011;16960;49.404;8.248;2023-05-21T14:45:30;10.90;;;9.90;;